Terminal Aerodrome Forecast
Issued by NWS Lake Charles, LA

Home | Current Version | Previous Version | Text Only | Print | Product List | Glossary On
Versions: 1 2 3 4 5 6 7 8 9 10 11 12 13 14 15 16 17 18 19 20 21 22 23 24 25 26 27 28 29
741
FTUS44 KLCH 290520
TAFAEX
TAF
KAEX 290520Z 2906/3006 VRB03KT P6SM BKN250
      TEMPO 2910/2914 4SM BR
     FM291500 27005KT P6SM BKN050=

USA.gov is the U.S. government's official web portal to all federal, state and local government web resources and services.